Time;durP1;ratioP1;P1;durP2;ratioP2;P2;SDS_P1;SDS_P2;PMS_P1;PMS_P2;Temp;Humidity;BMP_temperature;BMP_pressure;BME280_temperature;BME280_humidity;BME280_pressure;Samples;Min_cycle;Max_cycle;Signal;HPM_P1;HPM_P2
2022/07/26 00:02:14;;;;;;;12.40;7.05;;;;;;;26.85;56.66;100667.94;5009225;28;97799;-69
2022/07/26 00:04:41;;;;;;;12.02;6.72;;;;;;;26.58;58.11;100677.09;5008390;28;98429;-69
2022/07/26 00:07:10;;;;;;;7.88;5.93;;;;;;;26.76;56.56;100655.34;5007840;28;98593;-69
2022/07/26 00:09:36;;;;;;;8.70;6.35;;;;;;;26.90;56.30;100627.69;5009588;28;99102;-70
2022/07/26 00:12:03;;;;;;;10.93;6.60;;;;;;;27.15;55.79;100618.63;5008542;28;99095;-70
2022/07/26 00:14:34;;;;;;;9.45;6.80;;;;;;;27.09;55.02;100624.72;5008160;28;98933;-70
2022/07/26 00:17:01;;;;;;;10.23;7.03;;;;;;;26.74;56.43;100638.41;5009467;28;96792;-70
2022/07/26 00:19:30;;;;;;;10.48;6.65;;;;;;;26.54;57.31;100635.91;5009444;28;101353;-70
2022/07/26 00:24:38;;;;;;;10.18;6.90;;;;;;;26.67;56.67;100642.75;5004314;28;96877;-69
2022/07/26 00:27:05;;;;;;;11.85;6.18;;;;;;;26.38;57.31;100646.66;5014215;28;97185;-70
2022/07/26 00:29:32;;;;;;;7.25;6.35;;;;;;;26.45;57.22;100647.69;5006709;28;100429;-70
2022/07/26 00:31:59;;;;;;;7.85;6.20;;;;;;;26.50;57.59;100645.38;5012443;28;99426;-69
2022/07/26 00:34:26;;;;;;;9.40;6.22;;;;;;;26.63;56.89;100644.09;5006896;28;96712;-69
2022/07/26 00:36:54;;;;;;;9.82;6.70;;;;;;;26.76;57.26;100647.22;5005427;28;96994;-70
2022/07/26 00:39:21;;;;;;;9.68;5.78;;;;;;;26.51;57.14;100646.22;5006729;28;99115;-71
2022/07/26 00:41:47;;;;;;;9.00;6.43;;;;;;;26.37;58.47;100657.66;5008407;28;97850;-71
2022/07/26 00:44:14;;;;;;;6.72;5.80;;;;;;;26.19;59.02;100665.75;5009293;28;96858;-70
2022/07/26 00:46:41;;;;;;;9.63;6.18;;;;;;;26.19;58.63;100660.31;5010545;28;96799;-70
2022/07/26 00:49:08;;;;;;;9.32;6.43;;;;;;;26.11;58.57;100665.69;5005618;28;99744;-70
2022/07/26 00:51:35;;;;;;;7.63;5.90;;;;;;;25.97;56.14;100664.38;5008691;28;98648;-69
2022/07/26 00:54:03;;;;;;;10.48;5.57;;;;;;;25.97;57.13;100663.53;5004963;28;97800;-70
2022/07/26 00:56:31;;;;;;;7.22;6.07;;;;;;;25.96;58.12;100651.00;5009156;28;97094;-69
2022/07/26 00:58:58;;;;;;;9.52;6.15;;;;;;;25.81;57.95;100650.69;5008955;28;99463;-69
2022/07/26 01:01:24;;;;;;;9.65;6.63;;;;;;;25.90;58.01;100647.06;5014038;28;98924;-69
2022/07/26 01:03:52;;;;;;;9.25;6.15;;;;;;;25.82;58.16;100654.25;5008886;28;96897;-70
2022/07/26 01:06:19;;;;;;;8.57;5.75;;;;;;;25.81;57.87;100653.41;5015595;28;96923;-69
2022/07/26 01:08:45;;;;;;;7.20;5.38;;;;;;;25.83;57.04;100654.09;5011775;28;99124;-69
2022/07/26 01:11:13;;;;;;;9.10;5.60;;;;;;;25.70;57.83;100659.91;5012445;28;99390;-70
2022/07/26 01:13:46;;;;;;;6.85;5.07;;;;;;;25.79;56.60;100663.53;5007615;28;97206;-70
2022/07/26 01:16:12;;;;;;;7.80;5.13;;;;;;;25.85;56.97;100665.63;5010948;28;97765;-71
2022/07/26 01:18:38;;;;;;;5.72;5.05;;;;;;;25.41;57.02;100664.59;5008366;28;98935;-70
2022/07/26 01:21:08;;;;;;;7.25;4.00;;;;;;;25.06;56.77;100670.78;5010162;28;98852;-70
2022/07/26 01:23:36;;;;;;;8.20;4.40;;;;;;;25.18;57.19;100676.84;5010375;28;96996;-70
2022/07/26 01:26:03;;;;;;;8.30;4.55;;;;;;;25.39;56.93;100686.41;5010516;28;97379;-70
2022/07/26 01:28:29;;;;;;;8.48;4.10;;;;;;;25.39;57.46;100697.25;5010537;28;101072;-70
2022/07/26 01:30:56;;;;;;;6.15;4.45;;;;;;;25.49;57.61;100680.94;5011740;28;99161;-71
2022/07/26 01:33:22;;;;;;;9.95;5.35;;;;;;;25.74;57.10;100680.22;5011358;28;97305;-70
2022/07/26 01:35:48;;;;;;;7.70;5.07;;;;;;;25.55;57.74;100680.31;5014148;28;97380;-70
2022/07/26 01:38:15;;;;;;;8.05;4.93;;;;;;;25.54;58.14;100683.19;5009933;28;101809;-71
2022/07/26 01:40:42;;;;;;;8.10;5.13;;;;;;;25.60;58.59;100686.16;5009205;28;99270;-70
2022/07/26 01:43:08;;;;;;;8.52;6.20;;;;;;;25.57;58.64;100686.47;5008104;28;96874;-70
2022/07/26 01:45:35;;;;;;;8.98;6.82;;;;;;;25.35;59.38;100685.00;5013402;28;97321;-69
2022/07/26 01:48:01;;;;;;;10.85;7.47;;;;;;;25.61;58.76;100678.91;5010105;28;98982;-70
2022/07/26 01:50:28;;;;;;;9.45;6.60;;;;;;;25.38;59.02;100683.84;5009354;28;98859;-70
2022/07/26 01:52:55;;;;;;;8.40;7.28;;;;;;;25.37;59.00;100687.56;5007329;28;96922;-69
2022/07/26 01:55:21;;;;;;;11.63;6.80;;;;;;;25.41;59.50;100699.78;5011214;28;96951;-69
2022/07/26 01:57:49;;;;;;;11.05;7.05;;;;;;;25.31;60.15;100701.69;5013342;28;98951;-69
2022/07/26 02:00:16;;;;;;;15.45;7.45;;;;;;;25.37;59.75;100687.56;5008077;28;98816;-69
2022/07/26 02:02:42;;;;;;;9.00;7.13;;;;;;;25.38;59.75;100679.31;5008843;28;97287;-69
2022/07/26 02:05:10;;;;;;;8.13;7.13;;;;;;;25.24;60.07;100687.06;5009817;28;98309;-69
2022/07/26 02:07:41;;;;;;;15.18;7.57;;;;;;;25.30;59.67;100694.56;5003212;28;99191;-69
2022/07/26 02:10:10;;;;;;;7.57;6.72;;;;;;;25.16;61.16;100711.28;5002637;28;99313;-69
2022/07/26 02:12:36;;;;;;;7.95;6.35;;;;;;;25.17;60.79;100715.69;5007806;28;96943;-70
2022/07/26 02:15:06;;;;;;;8.75;6.32;;;;;;;25.11;59.76;100702.78;5009056;28;97574;-69
2022/07/26 02:17:32;;;;;;;7.22;5.88;;;;;;;24.95;59.19;100709.66;5010644;28;102655;-70
2022/07/26 02:19:59;;;;;;;7.57;5.88;;;;;;;25.00;59.38;100710.09;5010836;28;98768;-70
2022/07/26 02:22:25;;;;;;;8.38;6.05;;;;;;;25.07;59.47;100714.91;5008183;28;99038;-69
2022/07/26 02:24:52;;;;;;;7.10;5.63;;;;;;;25.02;59.40;100715.31;5008100;28;97170;-71
2022/07/26 02:27:19;;;;;;;5.95;5.28;;;;;;;25.10;59.35;100699.22;5006216;28;99005;-70
2022/07/26 02:29:45;;;;;;;8.70;5.63;;;;;;;25.23;59.11;100701.56;5010445;28;99271;-70
2022/07/26 02:32:13;;;;;;;8.10;5.68;;;;;;;25.13;59.53;100700.78;5014142;28;96837;-70
2022/07/26 02:34:39;;;;;;;8.30;5.85;;;;;;;24.93;59.89;100700.88;5010099;28;96868;-69
2022/07/26 02:37:06;;;;;;;7.78;5.65;;;;;;;24.93;59.86;100703.56;5011407;28;98996;-71
2022/07/26 02:39:32;;;;;;;10.35;5.35;;;;;;;24.99;59.48;100704.81;5010034;28;98923;-70
2022/07/26 02:42:00;;;;;;;8.18;5.28;;;;;;;24.95;59.79;100704.25;4995971;28;97495;-70
2022/07/26 02:44:28;;;;;;;8.10;5.57;;;;;;;24.69;60.30;100697.75;5011495;28;97733;-70
2022/07/26 02:46:54;;;;;;;6.85;5.30;;;;;;;24.92;59.92;100698.31;5009559;28;98973;-70
2022/07/26 02:49:22;;;;;;;10.40;5.75;;;;;;;24.77;60.38;100702.44;5009468;28;98988;-70
2022/07/26 02:51:48;;;;;;;6.70;5.10;;;;;;;24.78;60.11;100696.03;5009729;28;98723;-69
2022/07/26 02:54:15;;;;;;;6.88;5.00;;;;;;;24.69;60.43;100696.91;5004960;28;99166;-70
2022/07/26 02:56:41;;;;;;;9.38;5.40;;;;;;;24.65;60.89;100690.94;5006550;28;99558;-70
2022/07/26 02:59:08;;;;;;;10.95;5.38;;;;;;;24.65;60.39;100693.66;5009482;28;100148;-68
2022/07/26 03:01:35;;;;;;;12.57;6.00;;;;;;;24.61;60.77;100690.38;5008790;28;96779;-68
2022/07/26 03:04:01;;;;;;;12.65;5.93;;;;;;;24.55;61.13;100692.81;5010304;28;96876;-68
2022/07/26 03:06:29;;;;;;;8.13;5.65;;;;;;;24.63;60.35;100695.63;5008376;28;99000;-68
2022/07/26 03:08:55;;;;;;;6.28;5.60;;;;;;;24.71;60.40;100695.75;5008080;28;98997;-68
2022/07/26 03:11:22;;;;;;;8.88;6.40;;;;;;;24.37;61.12;100702.66;5011518;28;96811;-68
2022/07/26 03:13:48;;;;;;;5.85;5.03;;;;;;;24.47;61.20;100698.97;5006704;28;97609;-70
2022/07/26 03:16:14;;;;;;;10.02;5.55;;;;;;;24.57;60.70;100701.63;5006390;28;99109;-68
2022/07/26 03:18:41;;;;;;;10.32;5.45;;;;;;;24.59;60.21;100691.53;5008620;28;98912;-69
2022/07/26 03:21:07;;;;;;;6.03;5.22;;;;;;;24.55;60.74;100701.75;5011182;28;96758;-68
2022/07/26 03:23:35;;;;;;;8.80;5.63;;;;;;;24.43;60.48;100702.91;5010008;28;97722;-68
2022/07/26 03:26:02;;;;;;;7.13;5.45;;;;;;;24.50;60.08;100697.78;5006507;28;98934;-67
2022/07/26 03:28:29;;;;;;;7.95;4.57;;;;;;;24.37;59.35;100703.50;5008043;28;99005;-68
2022/07/26 03:30:56;;;;;;;6.45;4.63;;;;;;;24.34;59.08;100700.25;5010028;28;97602;-68
2022/07/26 03:33:22;;;;;;;8.30;4.90;;;;;;;24.34;59.23;100711.06;5008590;28;98798;-68
2022/07/26 03:35:49;;;;;;;5.00;4.40;;;;;;;24.46;58.80;100709.91;5008959;28;99764;-68
2022/07/26 03:38:15;;;;;;;9.05;4.10;;;;;;;24.28;58.51;100711.63;5007063;28;99588;-69
2022/07/26 03:40:43;;;;;;;9.18;4.22;;;;;;;24.41;57.83;100707.63;5009121;28;97177;-69
2022/07/26 03:43:09;;;;;;;7.43;4.15;;;;;;;24.35;57.29;100707.38;5006569;28;99489;-68
2022/07/26 03:45:35;;;;;;;9.05;4.13;;;;;;;23.88;56.93;100704.47;5011094;28;98378;-68
2022/07/26 03:48:02;;;;;;;8.38;4.32;;;;;;;23.76;57.72;100714.53;5009943;28;101342;-68
2022/07/26 03:50:28;;;;;;;7.97;3.83;;;;;;;23.99;57.73;100708.88;5009890;28;97652;-67
2022/07/26 03:52:55;;;;;;;6.25;3.38;;;;;;;23.83;57.12;100720.22;5007469;28;96910;-68
2022/07/26 03:58:07;;;;;;;9.50;3.25;;;;;;;24.14;55.33;100719.13;5004722;28;96995;-68
2022/07/26 04:00:33;;;;;;;10.73;3.80;;;;;;;23.76;55.93;100719.09;5009377;28;97149;-68
2022/07/26 04:03:00;;;;;;;7.43;3.00;;;;;;;23.92;55.50;100718.53;5010067;28;97213;-68
2022/07/26 04:05:26;;;;;;;7.57;2.92;;;;;;;23.91;54.70;100716.81;5005516;28;98785;-67
2022/07/26 04:07:53;;;;;;;3.50;2.70;;;;;;;24.03;54.64;100719.25;5006909;28;99195;-67
2022/07/26 04:10:20;;;;;;;7.97;3.30;;;;;;;23.97;54.55;100719.81;5011556;28;96871;-68
2022/07/26 04:12:46;;;;;;;8.48;2.85;;;;;;;24.10;54.68;100714.13;5007651;28;97648;-68
2022/07/26 04:15:15;;;;;;;4.35;2.92;;;;;;;23.99;54.44;100720.53;5008791;28;99089;-67
2022/07/26 04:17:43;;;;;;;5.72;3.05;;;;;;;23.98;54.97;100710.72;5006246;28;98670;-68
2022/07/26 04:20:12;;;;;;;6.15;3.25;;;;;;;23.99;53.83;100708.88;5008235;28;96842;-68
2022/07/26 04:22:40;;;;;;;10.65;2.95;;;;;;;23.97;54.85;100714.41;5009569;28;97840;-67
2022/07/26 04:25:08;;;;;;;5.60;2.97;;;;;;;24.13;53.76;100722.81;5002465;28;99052;-68
2022/07/26 04:27:35;;;;;;;5.57;3.20;;;;;;;23.91;54.52;100728.47;5003448;28;102105;-68
2022/07/26 04:30:02;;;;;;;6.05;3.45;;;;;;;23.97;54.06;100721.66;5009343;28;96858;-68
2022/07/26 04:32:30;;;;;;;5.03;2.67;;;;;;;23.95;54.86;100723.66;5007729;28;97014;-68
2022/07/26 04:34:56;;;;;;;7.78;3.20;;;;;;;24.15;54.08;100715.44;5010993;28;98884;-68
2022/07/26 04:37:23;;;;;;;8.68;3.35;;;;;;;24.21;53.88;100720.31;5008803;28;99349;-68
2022/07/26 04:39:49;;;;;;;8.15;3.20;;;;;;;24.30;53.97;100725.81;5011211;28;98169;-68
2022/07/26 04:42:15;;;;;;;7.80;3.13;;;;;;;24.15;53.44;100718.13;5012279;28;97006;-67
2022/07/26 04:44:42;;;;;;;5.75;2.83;;;;;;;24.24;53.28;100724.53;5015578;28;98933;-67
2022/07/26 04:47:08;;;;;;;6.47;3.00;;;;;;;24.29;52.94;100724.09;5013513;28;97602;-68
2022/07/26 04:49:36;;;;;;;7.55;3.67;;;;;;;24.32;52.82;100715.72;5010096;28;97420;-67
2022/07/26 04:52:03;;;;;;;10.70;2.80;;;;;;;24.54;52.17;100720.84;5010387;28;97484;-68
2022/07/26 04:54:29;;;;;;;7.97;3.15;;;;;;;24.41;51.77;100731.09;5008704;28;97886;-68
2022/07/26 04:56:55;;;;;;;7.00;3.92;;;;;;;24.34;53.16;100729.94;5002804;28;99857;-68
2022/07/26 04:59:22;;;;;;;8.45;3.22;;;;;;;24.36;52.07;100727.94;5012374;28;96840;-68
2022/07/26 05:01:48;;;;;;;8.35;3.03;;;;;;;24.55;52.18;100733.31;5009298;28;97352;-68
2022/07/26 05:04:14;;;;;;;16.45;3.60;;;;;;;24.58;51.94;100731.19;5010964;28;98951;-68
2022/07/26 05:06:42;;;;;;;6.95;2.95;;;;;;;24.63;52.37;100737.00;5004472;28;99344;-68
2022/07/26 05:09:09;;;;;;;6.80;3.28;;;;;;;25.04;50.95;100739.50;5009457;28;97158;-68
2022/07/26 05:11:36;;;;;;;5.30;3.15;;;;;;;24.90;51.45;100738.97;5009730;28;97143;-67
2022/07/26 05:14:02;;;;;;;7.38;3.22;;;;;;;25.06;51.43;100737.53;5012152;28;98900;-69
2022/07/26 05:16:28;;;;;;;8.20;3.10;;;;;;;24.40;52.28;100740.19;5009645;28;98918;-68
2022/07/26 05:18:55;;;;;;;10.00;3.40;;;;;;;24.57;52.58;100745.69;5009308;28;96895;-68
2022/07/26 05:21:21;;;;;;;8.77;3.22;;;;;;;24.71;52.28;100752.50;5011097;28;96960;-68
2022/07/26 05:23:49;;;;;;;9.63;3.55;;;;;;;24.56;52.22;100746.69;5009733;28;99084;-68
2022/07/26 05:26:15;;;;;;;5.78;3.35;;;;;;;24.73;51.51;100747.81;5008560;28;101151;-68
2022/07/26 05:28:42;;;;;;;6.15;2.95;;;;;;;24.79;51.07;100752.63;5003409;28;97780;-68
2022/07/26 05:31:08;;;;;;;7.00;3.38;;;;;;;24.82;50.92;100751.47;5009043;28;98688;-70
2022/07/26 05:33:34;;;;;;;11.48;3.30;;;;;;;24.76;51.06;100763.72;5013522;28;96842;-68
2022/07/26 05:36:01;;;;;;;10.70;4.25;;;;;;;25.07;50.57;100755.44;5007431;28;97914;-70
2022/07/26 05:38:27;;;;;;;10.93;3.70;;;;;;;25.14;50.72;100761.97;5014599;28;96893;-69
2022/07/26 05:40:55;;;;;;;13.82;3.80;;;;;;;25.19;49.72;100767.78;5006226;28;97972;-70
2022/07/26 05:43:21;;;;;;;9.32;3.08;;;;;;;25.13;49.77;100761.13;5010886;28;97722;-70
2022/07/26 05:45:48;;;;;;;9.80;2.78;;;;;;;25.11;49.84;100767.66;5003823;28;98264;-70
2022/07/26 05:48:14;;;;;;;7.35;2.83;;;;;;;25.12;49.49;100769.38;5010271;28;96941;-70
2022/07/26 05:50:40;;;;;;;6.47;2.65;;;;;;;24.88;48.69;100772.50;5012241;28;97217;-70
2022/07/26 05:53:07;;;;;;;11.57;3.17;;;;;;;24.91;49.40;100773.13;5010791;28;99492;-69
2022/07/26 05:55:33;;;;;;;12.05;2.95;;;;;;;24.81;50.15;100780.34;5011788;28;98062;-70
2022/07/26 05:58:01;;;;;;;8.27;2.85;;;;;;;25.28;49.39;100775.00;5001006;28;97849;-70
2022/07/26 06:00:28;;;;;;;9.20;2.70;;;;;;;25.21;48.54;100779.28;5011130;28;97232;-70
2022/07/26 06:02:55;;;;;;;6.80;2.78;;;;;;;25.18;48.16;100774.19;5011711;28;99912;-70
2022/07/26 06:05:21;;;;;;;5.45;2.70;;;;;;;25.65;47.66;100767.75;5013496;28;98896;-71
2022/07/26 06:07:47;;;;;;;8.68;2.92;;;;;;;26.12;47.41;100773.00;5003770;28;97659;-70
2022/07/26 06:10:14;;;;;;;8.60;2.78;;;;;;;26.25;45.90;100776.22;5015062;28;96966;-70
2022/07/26 06:12:40;;;;;;;9.15;2.30;;;;;;;26.44;45.16;100775.22;5009761;28;101990;-70
2022/07/26 06:15:09;;;;;;;6.00;2.13;;;;;;;26.54;45.40;100778.66;5012248;28;98860;-71
2022/07/26 06:17:40;;;;;;;12.95;2.38;;;;;;;26.17;44.76;100784.22;5011491;28;97186;-70
2022/07/26 06:20:07;;;;;;;8.00;2.60;;;;;;;25.91;46.20;100785.97;5014144;28;96844;-71
2022/07/26 06:22:34;;;;;;;6.70;2.17;;;;;;;26.20;44.94;100779.34;5011190;28;98057;-68
2022/07/26 06:25:00;;;;;;;5.43;2.00;;;;;;;26.58;44.38;100788.22;5009809;28;98872;-70
2022/07/26 06:27:26;;;;;;;9.48;3.33;;;;;;;26.52;43.96;100778.81;5009854;28;97438;-70
2022/07/26 06:29:53;;;;;;;12.13;3.35;;;;;;;26.20;45.06;100782.06;5012624;28;97386;-70
2022/07/26 06:32:21;;;;;;;12.60;3.40;;;;;;;26.39;45.49;100781.06;5010658;28;101865;-70
2022/07/26 06:34:47;;;;;;;11.40;2.75;;;;;;;26.35;44.33;100782.41;5007762;28;98847;-69
2022/07/26 06:37:14;;;;;;;12.55;2.28;;;;;;;25.41;46.33;100787.19;5002417;28;97691;-71
2022/07/26 06:39:41;;;;;;;12.57;2.50;;;;;;;25.88;46.06;100775.44;5012181;28;96958;-71
2022/07/26 06:42:07;;;;;;;13.32;2.55;;;;;;;25.98;45.51;100787.06;5011185;28;98680;-70
2022/07/26 06:44:34;;;;;;;12.25;2.58;;;;;;;25.10;47.14;100787.59;5011924;28;98848;-70
2022/07/26 06:47:00;;;;;;;9.63;2.40;;;;;;;24.99;46.53;100794.03;5011282;28;96757;-70
2022/07/26 06:49:28;;;;;;;8.95;2.63;;;;;;;25.22;46.34;100792.66;5010768;28;96815;-70
2022/07/26 06:51:56;;;;;;;16.58;3.03;;;;;;;25.39;45.95;100786.50;5003001;28;98968;-70
2022/07/26 06:54:22;;;;;;;11.77;2.42;;;;;;;25.92;44.99;100782.28;5010259;28;98884;-70
2022/07/26 06:56:49;;;;;;;8.73;2.28;;;;;;;25.92;44.90;100785.84;5010651;28;97078;-69
2022/07/26 06:59:15;;;;;;;6.50;2.28;;;;;;;26.26;44.63;100786.03;5011792;28;96959;-70
2022/07/26 07:01:42;;;;;;;5.75;2.22;;;;;;;26.44;43.98;100789.63;5008606;28;98879;-71
2022/07/26 07:04:08;;;;;;;6.10;1.80;;;;;;;26.86;42.91;100794.34;5010990;28;98854;-71
2022/07/26 07:06:36;;;;;;;8.05;1.88;;;;;;;26.50;43.35;100794.41;5011547;28;97041;-71
2022/07/26 07:09:02;;;;;;;8.75;2.50;;;;;;;26.17;43.78;100797.78;5009380;28;98436;-71
2022/07/26 07:11:28;;;;;;;9.40;2.10;;;;;;;26.62;43.13;100800.44;5008892;28;101525;-70
2022/07/26 07:13:55;;;;;;;6.30;1.75;;;;;;;26.50;43.03;100810.66;5011332;28;101640;-70
2022/07/26 07:16:21;;;;;;;5.95;1.65;;;;;;;26.55;42.79;100802.06;5011153;28;96733;-70
2022/07/26 07:18:50;;;;;;;7.88;2.42;;;;;;;26.75;42.70;100811.72;5014875;28;97313;-71
2022/07/26 07:21:16;;;;;;;4.90;1.50;;;;;;;26.73;42.45;100815.59;5006288;28;99369;-70
2022/07/26 07:23:44;;;;;;;7.72;1.73;;;;;;;26.65;42.65;100810.94;5012332;28;99276;-70
2022/07/26 07:26:10;;;;;;;9.30;1.88;;;;;;;26.40;42.54;100812.59;5009957;28;98039;-70
2022/07/26 07:28:37;;;;;;;4.45;1.77;;;;;;;26.25;42.66;100806.03;5011361;28;96993;-70
2022/07/26 07:31:04;;;;;;;10.73;1.75;;;;;;;26.26;43.07;100810.41;5003772;28;99638;-71
2022/07/26 07:33:31;;;;;;;5.70;1.80;;;;;;;26.40;42.46;100809.88;5010067;28;98928;-71
2022/07/26 07:35:58;;;;;;;5.68;1.50;;;;;;;26.59;41.69;100806.16;5008086;28;97713;-70
2022/07/26 07:38:25;;;;;;;10.73;1.83;;;;;;;26.46;41.89;100811.97;5016983;28;96989;-70
2022/07/26 07:40:53;;;;;;;7.00;1.42;;;;;;;26.40;42.30;100806.31;5005932;28;99386;-71
2022/07/26 07:43:20;;;;;;;7.60;1.73;;;;;;;27.13;40.88;100813.22;5004269;28;98762;-71
2022/07/26 07:45:46;;;;;;;16.00;1.73;;;;;;;26.71;41.58;100814.91;5006514;28;97980;-71
2022/07/26 07:48:12;;;;;;;6.82;1.70;;;;;;;26.74;41.06;100807.31;5011496;28;97186;-71
2022/07/26 07:50:39;;;;;;;9.95;1.85;;;;;;;26.94;41.00;100808.00;5011602;28;99472;-71
2022/07/26 07:53:05;;;;;;;6.03;1.58;;;;;;;27.47;40.17;100809.69;5010459;28;98828;-73
2022/07/26 07:55:31;;;;;;;6.65;1.20;;;;;;;27.65;39.65;100807.75;5011297;28;96801;-71
2022/07/26 07:57:59;;;;;;;5.65;1.85;;;;;;;28.48;37.91;100808.72;5008170;28;97500;-71
2022/07/26 08:00:25;;;;;;;9.18;2.80;;;;;;;28.17;37.37;100804.91;5010553;28;98918;-71
2022/07/26 08:02:52;;;;;;;5.28;1.40;;;;;;;27.40;39.17;100801.34;4991337;28;100082;-71
2022/07/26 08:05:19;;;;;;;6.18;1.48;;;;;;;27.21;39.94;100799.72;5010129;28;96959;-71
2022/07/26 08:07:45;;;;;;;4.70;1.17;;;;;;;27.22;40.10;100798.69;5012622;28;96782;-72
2022/07/26 08:10:12;;;;;;;5.07;1.25;;;;;;;27.68;38.99;100800.16;5010956;28;99390;-71
2022/07/26 08:12:38;;;;;;;14.30;2.05;;;;;;;27.61;39.68;100804.53;5009442;28;97980;-71
2022/07/26 08:15:08;;;;;;;7.80;1.80;;;;;;;27.32;39.71;100804.00;5010363;28;96911;-70
2022/07/26 08:17:34;;;;;;;6.43;2.38;;;;;;;27.27;40.03;100804.50;5010289;28;97095;-71
2022/07/26 08:20:01;;;;;;;7.60;1.75;;;;;;;27.24;39.15;100806.69;5012999;28;99053;-70
2022/07/26 08:22:28;;;;;;;12.63;1.67;;;;;;;27.24;39.35;100799.38;5009027;28;101258;-70
2022/07/26 08:24:54;;;;;;;8.60;1.95;;;;;;;27.03;39.99;100796.22;5014515;28;96764;-71
2022/07/26 08:27:21;;;;;;;12.07;1.77;;;;;;;26.81;39.52;100802.09;5010545;28;97409;-71
2022/07/26 08:29:47;;;;;;;5.85;1.30;;;;;;;26.53;40.24;100801.34;5010121;28;98982;-71
2022/07/26 08:32:15;;;;;;;7.35;1.42;;;;;;;26.59;40.12;100796.16;5008925;28;98950;-72
2022/07/26 08:34:41;;;;;;;5.97;1.30;;;;;;;26.29;40.49;100804.69;5008599;28;96831;-71
2022/07/26 08:37:08;;;;;;;5.50;1.02;;;;;;;26.29;40.62;100807.41;5009676;28;97055;-71
2022/07/26 08:39:34;;;;;;;5.75;1.80;;;;;;;26.78;39.67;100813.28;5009884;28;98976;-71
2022/07/26 08:42:02;;;;;;;5.38;1.90;;;;;;;27.21;38.75;100809.72;5008780;28;98874;-71
2022/07/26 08:44:29;;;;;;;8.45;1.80;;;;;;;27.04;38.82;100808.75;5011690;28;97521;-71
2022/07/26 08:46:55;;;;;;;6.57;2.50;;;;;;;27.12;38.81;100814.22;5010116;28;96816;-71
2022/07/26 08:49:23;;;;;;;4.32;1.67;;;;;;;27.07;39.22;100822.00;5009890;28;99342;-70
2022/07/26 08:51:52;;;;;;;5.95;1.38;;;;;;;27.20;39.17;100811.56;5008894;28;99453;-72
2022/07/26 08:54:19;;;;;;;6.68;1.73;;;;;;;27.12;38.70;100830.50;5010093;28;97314;-71
2022/07/26 08:56:50;;;;;;;3.38;1.52;;;;;;;26.36;39.45;100822.03;5009673;28;96812;-72
2022/07/26 08:59:19;;;;;;;3.08;1.10;;;;;;;26.63;39.35;100821.09;5008633;28;101096;-71
2022/07/26 09:01:53;;;;;;;4.20;1.20;;;;;;;26.81;39.15;100826.50;5008750;28;98978;-70
2022/07/26 09:04:21;;;;;;;4.38;1.10;;;;;;;26.97;38.75;100829.38;5010050;28;96864;-70
2022/07/26 09:06:57;;;;;;;10.20;1.67;;;;;;;27.14;38.07;100823.06;5010407;28;96809;-71
2022/07/26 09:09:23;;;;;;;5.50;0.90;;;;;;;26.73;38.66;100830.00;5008746;28;98890;-71
2022/07/26 09:11:50;;;;;;;3.10;0.90;;;;;;;27.06;37.31;100825.72;5006707;28;98910;-71
2022/07/26 09:14:16;;;;;;;3.67;0.90;;;;;;;27.22;37.56;100823.13;5010283;28;97195;-70
2022/07/26 09:16:56;;;;;;;7.55;1.08;;;;;;;27.54;36.97;100829.78;5011613;28;97018;-71
2022/07/26 09:19:23;;;;;;;4.82;1.20;;;;;;;27.91;36.46;100822.13;5006791;28;100501;-71
2022/07/26 09:21:51;;;;;;;6.05;0.88;;;;;;;28.14;35.64;100828.69;5009820;28;99021;-71
2022/07/26 09:24:31;;;;;;;3.75;0.90;;;;;;;28.20;36.06;100832.59;5013483;28;97165;-71
2022/07/26 09:27:00;;;;;;;2.42;0.90;;;;;;;27.73;36.47;100826.81;5012996;28;96870;-72
2022/07/26 09:29:28;;;;;;;6.90;0.93;;;;;;;27.39;37.72;100829.47;5013495;28;99397;-71
2022/07/26 09:32:12;;;;;;;3.22;0.73;;;;;;;27.54;37.65;100843.34;5004808;28;99113;-71
2022/07/26 09:34:39;;;;;;;5.47;1.25;;;;;;;28.11;36.84;100828.97;5012114;28;96726;-71
2022/07/26 09:37:06;;;;;;;3.65;1.00;;;;;;;27.85;36.92;100835.50;5013059;28;96854;-71
2022/07/26 09:39:53;;;;;;;3.75;1.02;;;;;;;28.27;36.09;100827.34;5012196;28;101376;-72
2022/07/26 09:42:20;;;;;;;6.28;1.00;;;;;;;28.71;35.10;100828.75;5011928;28;99502;-71
2022/07/26 09:44:47;;;;;;;6.40;1.40;;;;;;;29.05;34.63;100833.22;5013377;28;97030;-72
2022/07/26 09:47:13;;;;;;;5.82;0.90;;;;;;;29.43;33.98;100835.19;5003992;28;97475;-71
2022/07/26 09:49:41;;;;;;;2.35;1.08;;;;;;;30.22;32.86;100823.31;5012818;28;99028;-70
2022/07/26 09:52:14;;;;;;;3.78;0.95;;;;;;;30.60;31.89;100835.19;5012194;28;101435;-70
2022/07/26 09:54:44;;;;;;;3.50;0.90;;;;;;;30.32;31.77;100836.72;5009848;28;96809;-70
2022/07/26 09:57:11;;;;;;;5.57;0.80;;;;;;;30.34;32.00;100834.66;5009086;28;97589;-72
2022/07/26 09:59:37;;;;;;;4.68;0.88;;;;;;;30.45;32.12;100835.09;5012571;28;99339;-70
2022/07/26 10:02:04;;;;;;;5.35;1.23;;;;;;;30.40;32.13;100828.47;5011734;28;98925;-71
2022/07/26 10:04:31;;;;;;;7.80;1.80;;;;;;;30.40;32.51;100831.19;5012438;28;97174;-71
2022/07/26 10:06:57;;;;;;;3.33;1.63;;;;;;;29.89;32.98;100835.38;5012921;28;97800;-71
2022/07/26 10:09:25;;;;;;;7.80;1.50;;;;;;;29.33;33.91;100839.97;5006870;28;99063;-71
2022/07/26 10:11:56;;;;;;;2.65;1.05;;;;;;;29.20;34.18;100843.22;5013268;28;99126;-70
2022/07/26 10:14:35;;;;;;;3.92;1.40;;;;;;;28.66;34.48;100835.72;5013029;28;96795;-70
2022/07/26 10:17:21;;;;;;;6.35;1.20;;;;;;;28.26;35.71;100833.81;5009651;28;96763;-71
2022/07/26 10:19:48;;;;;;;6.88;1.40;;;;;;;28.96;34.88;100834.22;5012161;28;99460;-72
2022/07/26 10:22:25;;;;;;;4.22;1.00;;;;;;;29.48;33.85;100840.97;5012973;28;99229;-71
2022/07/26 10:24:51;;;;;;;7.00;1.15;;;;;;;29.23;33.67;100845.59;5012647;28;96798;-71
2022/07/26 10:30:25;;;;;;;3.88;1.15;;;;;;;28.38;35.52;100840.63;5070550;27;97488;-71
2022/07/26 10:32:59;;;;;;;3.42;0.88;;;;;;;28.24;35.14;100841.25;5056378;27;96895;-71
2022/07/26 10:35:30;;;;;;;4.05;0.93;;;;;;;28.39;34.98;100839.59;5049164;27;97706;-71
2022/07/26 10:37:58;;;;;;;3.10;1.08;;;;;;;28.40;35.17;100844.88;5048962;27;99306;-71
2022/07/26 10:40:28;;;;;;;8.15;1.35;;;;;;;28.18;35.63;100844.66;5048044;27;98405;-70
2022/07/26 10:43:06;;;;;;;5.35;1.00;;;;;;;27.89;35.93;100845.91;5056865;27;96858;-71
2022/07/26 10:45:35;;;;;;;3.25;0.88;;;;;;;27.63;36.22;100842.38;5050287;27;98165;-71
2022/07/26 10:48:17;;;;;;;9.90;1.35;;;;;;;27.75;36.08;100839.22;5049478;27;98790;-71
2022/07/26 10:50:48;;;;;;;4.93;1.30;;;;;;;27.57;36.80;100834.88;5056648;27;97609;-71
2022/07/26 10:53:20;;;;;;;3.45;0.90;;;;;;;27.93;36.37;100849.97;5050878;27;97182;-71
2022/07/26 10:55:49;;;;;;;4.80;0.90;;;;;;;28.36;35.93;100840.78;5049661;27;101545;-71
2022/07/26 10:58:16;;;;;;;4.70;1.15;;;;;;;28.21;35.98;100844.31;5048547;27;99922;-71
2022/07/26 11:00:56;;;;;;;7.93;1.20;;;;;;;28.30;36.15;100848.75;5052927;27;97194;-71
2022/07/26 11:03:22;;;;;;;8.43;1.10;;;;;;;27.96;36.46;100852.34;5052654;27;96762;-70
2022/07/26 11:05:50;;;;;;;2.65;0.90;;;;;;;28.02;36.69;100846.28;5049132;27;99010;-68
2022/07/26 11:08:17;;;;;;;16.42;8.13;;;;;;;28.02;36.16;100853.56;5046176;27;99503;-67
2022/07/26 11:10:45;;;;;;;8.88;2.70;;;;;;;28.26;36.19;100844.66;5050498;27;97218;-67
2022/07/26 11:13:15;;;;;;;1.75;0.98;;;;;;;28.56;36.14;100838.59;5050279;27;96672;-67
2022/07/26 11:15:45;;;;;;;3.88;1.20;;;;;;;29.01;35.61;100848.19;5050822;27;99063;-66
2022/07/26 11:18:16;;;;;;;7.30;1.63;;;;;;;29.25;34.74;100845.44;5049407;27;99982;-67
2022/07/26 11:20:45;;;;;;;4.55;1.50;;;;;;;29.61;34.64;100841.28;5048947;27;97063;-67
2022/07/26 11:23:27;;;;;;;6.28;1.20;;;;;;;30.20;34.30;100833.53;5051814;27;96848;-67
2022/07/26 11:26:05;;;;;;;7.32;1.17;;;;;;;30.69;32.31;100835.97;5049629;27;100441;-67
2022/07/26 11:28:51;;;;;;;4.50;0.90;;;;;;;30.00;34.30;100840.44;5038577;27;98525;-67
2022/07/26 11:31:19;;;;;;;4.20;1.27;;;;;;;29.88;33.66;100844.56;5048406;27;97263;-67
2022/07/26 11:33:50;;;;;;;4.10;1.13;;;;;;;29.88;33.05;100837.25;5049197;27;96965;-67
2022/07/26 11:36:18;;;;;;;8.65;1.52;;;;;;;29.54;34.15;100839.41;5047080;27;98203;-66